Time;durP1;ratioP1;P1;durP2;ratioP2;P2;SDS_P1;SDS_P2;PMS_P1;PMS_P2;Temp;Humidity;BMP_temperature;BMP_pressure;BME280_temperature;BME280_humidity;BME280_pressure;Samples;Min_cycle;Max_cycle;Signal;HPM_P1;HPM_P2
2024/03/01 00:00:58;;;;;;;56.80;16.35;;;;;;;;;;5082965;28;20028;-51
2024/03/01 00:03:25;;;;;;;48.60;15.93;;;;;;;;;;5083060;28;20024;-47
2024/03/01 00:05:51;;;;;;;43.75;14.43;;;;;;;;;;5084231;28;20021;-48
2024/03/01 00:08:19;;;;;;;36.05;13.32;;;;;;;;;;5086782;28;20024;-52
2024/03/01 00:10:45;;;;;;;51.45;13.73;;;;;;;;;;5087026;28;20201;-48
2024/03/01 00:13:12;;;;;;;41.00;14.05;;;;;;;;;;5086776;28;20044;-45
2024/03/01 00:15:39;;;;;;;48.45;14.80;;;;;;;;;;5087102;28;20231;-44
2024/03/01 00:18:05;;;;;;;64.35;14.48;;;;;;;;;;5086792;28;20316;-49
2024/03/01 00:20:32;;;;;;;41.05;13.90;;;;;;;;;;5087084;28;20025;-42
2024/03/01 00:22:58;;;;;;;50.97;13.80;;;;;;;;;;5086559;28;20028;-51
2024/03/01 00:25:25;;;;;;;46.05;12.93;;;;;;;;;;5086877;28;20025;-48
2024/03/01 00:27:52;;;;;;;53.97;14.52;;;;;;;;;;5086737;28;20020;-43
2024/03/01 00:30:18;;;;;;;49.45;14.55;;;;;;;;;;5086622;28;20029;-47
2024/03/01 00:32:45;;;;;;;46.45;13.88;;;;;;;;;;5087113;28;20020;-43
2024/03/01 00:35:12;;;;;;;45.72;13.32;;;;;;;;;;5086637;28;20066;-45
2024/03/01 00:37:38;;;;;;;30.27;12.32;;;;;;;;;;5086795;28;20051;-52
2024/03/01 00:40:05;;;;;;;28.20;12.77;;;;;;;;;;5086568;28;20028;-51
2024/03/01 00:42:32;;;;;;;31.25;12.60;;;;;;;;;;5086262;28;20027;-45
2024/03/01 00:44:58;;;;;;;35.58;12.93;;;;;;;;;;5085978;28;20084;-49
2024/03/01 00:47:25;;;;;;;30.15;12.88;;;;;;;;;;5086497;28;20081;-53
2024/03/01 00:49:51;;;;;;;80.22;16.17;;;;;;;;;;5086119;28;20196;-46
2024/03/01 00:52:18;;;;;;;167.73;23.33;;;;;;;;;;5068931;28;20023;-49
2024/03/01 00:54:44;;;;;;;93.10;17.60;;;;;;;;;;5074603;28;20020;-51
2024/03/01 00:57:11;;;;;;;112.03;18.35;;;;;;;;;;5085992;28;20024;-50
2024/03/01 00:59:37;;;;;;;69.15;15.75;;;;;;;;;;5085524;28;20016;-48
2024/03/01 01:02:07;;;;;;;68.40;15.63;;;;;;;;;;5084749;28;20020;-52
2024/03/01 01:04:33;;;;;;;45.58;14.65;;;;;;;;;;5084670;28;20016;-51
2024/03/01 01:07:00;;;;;;;48.53;16.02;;;;;;;;;;5070667;28;20030;-45
2024/03/01 01:09:26;;;;;;;56.95;16.20;;;;;;;;;;5056638;28;20035;-44
2024/03/01 01:11:53;;;;;;;74.15;17.10;;;;;;;;;;5059556;28;20047;-48
2024/03/01 01:14:20;;;;;;;51.83;16.42;;;;;;;;;;5052156;28;20026;-47
2024/03/01 01:16:46;;;;;;;47.53;17.60;;;;;;;;;;5045091;28;20045;-45
2024/03/01 01:19:13;;;;;;;62.00;17.83;;;;;;;;;;5045560;28;20029;-50
2024/03/01 01:21:39;;;;;;;62.97;19.98;;;;;;;;;;5054656;28;20024;-49
2024/03/01 01:24:06;;;;;;;143.25;23.30;;;;;;;;;;5047446;28;20099;-47
2024/03/01 01:26:33;;;;;;;52.70;19.25;;;;;;;;;;5045830;28;20017;-50
2024/03/01 01:28:59;;;;;;;36.65;18.58;;;;;;;;;;5045337;28;20033;-42
2024/03/01 01:31:26;;;;;;;32.60;17.67;;;;;;;;;;5045590;28;20328;-44
2024/03/01 01:33:52;;;;;;;33.03;18.08;;;;;;;;;;5045537;28;20305;-49
2024/03/01 01:36:19;;;;;;;44.22;18.27;;;;;;;;;;5045207;28;20045;-43
2024/03/01 01:38:45;;;;;;;39.83;20.02;;;;;;;;;;5045074;28;20081;-44
2024/03/01 01:41:12;;;;;;;32.50;18.38;;;;;;;;;;5045585;28;20033;-46
2024/03/01 01:43:42;;;;;;;30.20;17.90;;;;;;;;;;5045073;28;20217;-46
2024/03/01 01:46:13;;;;;;;37.15;18.17;;;;;;;;;;5044593;28;20084;-43
2024/03/01 01:48:40;;;;;;;35.30;17.52;;;;;;;;;;5045170;28;20021;-46
2024/03/01 01:51:07;;;;;;;43.60;17.35;;;;;;;;;;5045178;28;20017;-50
2024/03/01 01:53:34;;;;;;;38.25;18.33;;;;;;;;;;5045909;28;20024;-46
2024/03/01 01:56:02;;;;;;;30.00;17.13;;;;;;;;;;5052703;28;20032;-42
2024/03/01 01:58:30;;;;;;;29.27;16.98;;;;;;;;;;5043977;28;20029;-43
2024/03/01 02:00:57;;;;;;;33.83;16.90;;;;;;;;;;5044182;28;20068;-54
2024/03/01 02:03:24;;;;;;;38.15;16.00;;;;;;;;;;5055299;28;20187;-53
2024/03/01 02:05:50;;;;;;;25.25;14.60;;;;;;;;;;5045287;28;20028;-53
2024/03/01 02:08:18;;;;;;;24.17;14.45;;;;;;;;;;5044922;28;20329;-56
2024/03/01 02:10:45;;;;;;;40.05;14.75;;;;;;;;;;5044207;28;20022;-55
2024/03/01 02:13:18;;;;;;;24.60;14.05;;;;;;;;;;5043648;28;20021;-54
2024/03/01 02:15:45;;;;;;;30.33;13.75;;;;;;;;;;5043690;28;20309;-52
2024/03/01 02:18:12;;;;;;;22.33;13.05;;;;;;;;;;5043725;28;20225;-57
2024/03/01 02:20:40;;;;;;;32.47;12.65;;;;;;;;;;5054175;28;20089;-57
2024/03/01 02:23:14;;;;;;;23.15;13.25;;;;;;;;;;5054939;28;20066;-58
2024/03/01 02:25:41;;;;;;;24.25;12.82;;;;;;;;;;5054472;28;20024;-51
2024/03/01 02:28:07;;;;;;;25.30;12.60;;;;;;;;;;5052719;28;20248;-58
2024/03/01 02:30:34;;;;;;;20.95;13.60;;;;;;;;;;5053498;28;20096;-57
2024/03/01 02:33:01;;;;;;;23.50;13.60;;;;;;;;;;5057790;28;20029;-58
2024/03/01 02:35:27;;;;;;;16.67;12.82;;;;;;;;;;5057608;28;20297;-58
2024/03/01 02:37:54;;;;;;;16.58;13.20;;;;;;;;;;5052745;28;20343;-58
2024/03/01 02:40:20;;;;;;;28.67;13.80;;;;;;;;;;5053557;28;20289;-56
2024/03/01 02:42:47;;;;;;;31.15;14.68;;;;;;;;;;5058260;28;20218;-53
2024/03/01 02:45:14;;;;;;;26.77;13.73;;;;;;;;;;5053766;28;20029;-50
2024/03/01 02:47:44;;;;;;;24.67;14.35;;;;;;;;;;5054405;28;20045;-58
2024/03/01 02:50:11;;;;;;;27.98;15.60;;;;;;;;;;5054995;28;20027;-51
2024/03/01 02:52:38;;;;;;;29.13;18.05;;;;;;;;;;5054068;28;20032;-55
2024/03/01 02:55:05;;;;;;;33.20;20.55;;;;;;;;;;5052850;28;20028;-52
2024/03/01 02:57:32;;;;;;;40.00;26.40;;;;;;;;;;5054309;28;20088;-56
2024/03/01 02:59:58;;;;;;;41.85;28.55;;;;;;;;;;5053611;28;20028;-56
2024/03/01 03:02:25;;;;;;;43.65;34.58;;;;;;;;;;5052471;28;20211;-57
2024/03/01 03:04:53;;;;;;;55.15;40.15;;;;;;;;;;5054107;28;20020;-57
2024/03/01 03:07:20;;;;;;;55.10;39.92;;;;;;;;;;5053613;28;20030;-57
2024/03/01 03:09:47;;;;;;;51.30;38.95;;;;;;;;;;5052292;28;20125;-58
2024/03/01 03:12:13;;;;;;;46.30;34.30;;;;;;;;;;5055487;28;20025;-55
2024/03/01 03:14:40;;;;;;;41.95;30.63;;;;;;;;;;5059965;28;20017;-57
2024/03/01 03:17:07;;;;;;;44.55;28.83;;;;;;;;;;5061474;28;20055;-58
2024/03/01 03:19:34;;;;;;;40.58;28.13;;;;;;;;;;5061480;28;20206;-54
2024/03/01 03:22:06;;;;;;;33.05;24.08;;;;;;;;;;5054198;28;20191;-57
2024/03/01 03:24:32;;;;;;;36.88;25.75;;;;;;;;;;5052713;28;20045;-53
2024/03/01 03:26:59;;;;;;;27.80;22.10;;;;;;;;;;5053132;28;20021;-51
2024/03/01 03:29:25;;;;;;;35.63;20.88;;;;;;;;;;5054381;28;20025;-53
2024/03/01 03:31:52;;;;;;;29.98;19.98;;;;;;;;;;5053013;28;20021;-52
2024/03/01 03:34:19;;;;;;;29.55;19.17;;;;;;;;;;5053017;28;20021;-52
2024/03/01 03:36:45;;;;;;;29.10;18.15;;;;;;;;;;5054224;28;20035;-53
2024/03/01 03:39:12;;;;;;;23.88;16.60;;;;;;;;;;5052547;28;20068;-51
2024/03/01 03:41:38;;;;;;;24.45;15.80;;;;;;;;;;5056840;28;20013;-53
2024/03/01 03:44:05;;;;;;;21.50;15.77;;;;;;;;;;5057952;28;20078;-55
2024/03/01 03:46:32;;;;;;;22.77;15.25;;;;;;;;;;5056123;28;20056;-48
2024/03/01 03:48:58;;;;;;;23.88;14.57;;;;;;;;;;5058645;28;20029;-53
2024/03/01 03:51:28;;;;;;;21.05;14.10;;;;;;;;;;5061937;28;20253;-53
2024/03/01 03:53:56;;;;;;;21.30;14.35;;;;;;;;;;5057861;28;20032;-55
2024/03/01 03:56:23;;;;;;;17.33;13.50;;;;;;;;;;5057599;28;20080;-52
2024/03/01 03:58:50;;;;;;;20.33;13.35;;;;;;;;;;5055667;28;20031;-49
2024/03/01 04:01:17;;;;;;;21.67;13.68;;;;;;;;;;5057447;28;20284;-53
2024/03/01 04:03:44;;;;;;;19.10;12.45;;;;;;;;;;5057166;28;20066;-48
2024/03/01 04:06:10;;;;;;;21.35;13.05;;;;;;;;;;5055762;28;20025;-57
2024/03/01 04:08:40;;;;;;;15.73;11.43;;;;;;;;;;5057049;28;20255;-48
2024/03/01 04:11:06;;;;;;;18.38;12.15;;;;;;;;;;5057743;28;20071;-53
2024/03/01 04:13:33;;;;;;;18.10;11.98;;;;;;;;;;5057391;28;20024;-53
2024/03/01 04:16:00;;;;;;;16.15;12.23;;;;;;;;;;5056808;28;20076;-54
2024/03/01 04:18:27;;;;;;;19.83;12.35;;;;;;;;;;5055496;28;20043;-51
2024/03/01 04:20:55;;;;;;;19.85;13.02;;;;;;;;;;5057266;28;20017;-52
2024/03/01 04:23:22;;;;;;;18.52;12.02;;;;;;;;;;5056764;28;20079;-45
2024/03/01 04:25:51;;;;;;;18.48;12.70;;;;;;;;;;5055472;28;20242;-52
2024/03/01 04:28:27;;;;;;;20.73;12.98;;;;;;;;;;5056390;28;20024;-53
2024/03/01 04:30:54;;;;;;;20.52;13.45;;;;;;;;;;5057612;28;20197;-53
2024/03/01 04:33:20;;;;;;;22.33;14.15;;;;;;;;;;5056608;28;20040;-54
2024/03/01 04:35:47;;;;;;;19.90;13.63;;;;;;;;;;5055327;28;20073;-54
2024/03/01 04:38:15;;;;;;;22.85;14.90;;;;;;;;;;5058305;28;20198;-55
2024/03/01 04:40:41;;;;;;;22.48;14.10;;;;;;;;;;5062392;28;20026;-58
2024/03/01 04:43:08;;;;;;;22.00;14.80;;;;;;;;;;5054808;28;20033;-52
2024/03/01 04:45:35;;;;;;;23.77;14.82;;;;;;;;;;5056505;28;20045;-56
2024/03/01 04:48:01;;;;;;;19.08;14.57;;;;;;;;;;5055999;28;20033;-46
2024/03/01 04:50:28;;;;;;;19.77;14.88;;;;;;;;;;5054725;28;20033;-46
2024/03/01 04:52:55;;;;;;;22.23;15.18;;;;;;;;;;5055912;28;20029;-48
2024/03/01 04:55:21;;;;;;;21.88;15.27;;;;;;;;;;5056236;28;20021;-44
2024/03/01 04:57:48;;;;;;;22.42;15.52;;;;;;;;;;5054622;28;20231;-51
2024/03/01 05:00:20;;;;;;;22.25;16.10;;;;;;;;;;5056854;28;20088;-49
2024/03/01 05:02:47;;;;;;;23.63;16.83;;;;;;;;;;5056471;28;20033;-50
2024/03/01 05:05:14;;;;;;;22.65;16.27;;;;;;;;;;5054873;28;20028;-50
2024/03/01 05:07:41;;;;;;;24.42;16.42;;;;;;;;;;5055645;28;20043;-53
2024/03/01 05:10:08;;;;;;;22.30;16.35;;;;;;;;;;5056566;28;20029;-44
2024/03/01 05:12:38;;;;;;;23.05;17.00;;;;;;;;;;5055388;28;20025;-56
2024/03/01 05:15:07;;;;;;;26.10;17.65;;;;;;;;;;5056119;28;20080;-48
2024/03/01 05:17:35;;;;;;;25.40;17.63;;;;;;;;;;5053612;28;20071;-51
2024/03/01 05:20:08;;;;;;;24.20;18.02;;;;;;;;;;5063704;28;20098;-50
2024/03/01 05:22:38;;;;;;;24.05;17.80;;;;;;;;;;5056180;28;20021;-53
2024/03/01 05:25:14;;;;;;;23.08;17.13;;;;;;;;;;5055684;28;20306;-52
2024/03/01 05:27:41;;;;;;;25.10;17.73;;;;;;;;;;5061774;28;20039;-51
2024/03/01 05:30:08;;;;;;;26.73;17.40;;;;;;;;;;5062926;28;20024;-41
2024/03/01 05:32:35;;;;;;;25.20;18.13;;;;;;;;;;5055981;28;20013;-43
2024/03/01 05:35:03;;;;;;;23.00;17.00;;;;;;;;;;5056046;28;20018;-39
2024/03/01 05:37:30;;;;;;;25.98;16.90;;;;;;;;;;5054377;28;20032;-41
2024/03/01 05:39:56;;;;;;;26.25;17.50;;;;;;;;;;5054681;28;20412;-40
2024/03/01 05:42:23;;;;;;;26.05;16.67;;;;;;;;;;5055863;28;20033;-43
2024/03/01 05:44:50;;;;;;;22.83;16.08;;;;;;;;;;5055691;28;20041;-39
2024/03/01 05:47:17;;;;;;;21.30;15.25;;;;;;;;;;5054756;28;20394;-40
2024/03/01 05:49:43;;;;;;;22.30;16.38;;;;;;;;;;5053850;28;20029;-42
2024/03/01 05:52:10;;;;;;;21.15;15.27;;;;;;;;;;5055512;28;20021;-42
2024/03/01 05:54:37;;;;;;;25.10;15.45;;;;;;;;;;5052737;28;20013;-41
2024/03/01 05:57:03;;;;;;;23.58;15.88;;;;;;;;;;5063245;28;20036;-43
2024/03/01 05:59:30;;;;;;;19.50;15.43;;;;;;;;;;5059909;28;20209;-40
2024/03/01 06:01:56;;;;;;;22.05;15.32;;;;;;;;;;5063064;28;20389;-42
2024/03/01 06:04:23;;;;;;;22.52;15.40;;;;;;;;;;5062562;28;20309;-39
2024/03/01 06:06:50;;;;;;;22.50;15.13;;;;;;;;;;5056940;28;20021;-40
2024/03/01 06:09:17;;;;;;;19.75;15.18;;;;;;;;;;5054589;28;20017;-49
2024/03/01 06:11:44;;;;;;;20.60;14.55;;;;;;;;;;5055892;28;20035;-38
2024/03/01 06:14:11;;;;;;;18.70;15.13;;;;;;;;;;5050217;28;20059;-41
2024/03/01 06:16:37;;;;;;;21.60;15.10;;;;;;;;;;5044455;28;20022;-40
2024/03/01 06:19:05;;;;;;;21.27;14.80;;;;;;;;;;5060041;28;20075;-51
2024/03/01 06:21:31;;;;;;;21.05;15.35;;;;;;;;;;5064997;28;20025;-40
2024/03/01 06:23:58;;;;;;;21.33;15.52;;;;;;;;;;5058289;28;20209;-40
2024/03/01 06:26:24;;;;;;;18.05;15.02;;;;;;;;;;5051471;28;20213;-44
2024/03/01 06:28:51;;;;;;;21.45;14.98;;;;;;;;;;5061253;28;20182;-46
2024/03/01 06:31:18;;;;;;;22.38;14.75;;;;;;;;;;5064468;28;20040;-48
2024/03/01 06:33:44;;;;;;;101.40;20.30;;;;;;;;;;5062025;28;20028;-37
2024/03/01 06:36:12;;;;;;;41.92;16.05;;;;;;;;;;5055533;28;20021;-38
2024/03/01 06:38:39;;;;;;;27.73;15.35;;;;;;;;;;5064113;28;20036;-40
2024/03/01 06:41:05;;;;;;;28.02;14.63;;;;;;;;;;5064368;28;20020;-45
2024/03/01 06:43:32;;;;;;;23.33;15.40;;;;;;;;;;5063345;28;20021;-46
2024/03/01 06:45:59;;;;;;;24.50;14.77;;;;;;;;;;5063672;28;20036;-45
2024/03/01 06:48:26;;;;;;;26.17;14.48;;;;;;;;;;5063694;28;20082;-46
2024/03/01 06:50:53;;;;;;;24.20;14.55;;;;;;;;;;5064019;28;20089;-49
2024/03/01 06:53:20;;;;;;;16.58;13.25;;;;;;;;;;5062167;28;20025;-42
2024/03/01 06:55:47;;;;;;;22.27;14.63;;;;;;;;;;5062350;28;20024;-42
2024/03/01 06:58:13;;;;;;;19.08;13.90;;;;;;;;;;5062513;28;20218;-45
2024/03/01 07:00:46;;;;;;;19.88;14.50;;;;;;;;;;5062325;28;20209;-49
2024/03/01 07:03:14;;;;;;;21.92;14.35;;;;;;;;;;5062264;28;20037;-46
2024/03/01 07:05:40;;;;;;;19.02;14.43;;;;;;;;;;5062432;28;20024;-46
2024/03/01 07:08:07;;;;;;;21.42;14.20;;;;;;;;;;5063615;28;20025;-42
2024/03/01 07:10:34;;;;;;;20.15;14.52;;;;;;;;;;5063814;28;20045;-47
2024/03/01 07:13:01;;;;;;;17.25;14.05;;;;;;;;;;5063780;28;20025;-45
2024/03/01 07:15:29;;;;;;;17.73;13.85;;;;;;;;;;5065531;28;20092;-45
2024/03/01 07:17:57;;;;;;;21.45;14.40;;;;;;;;;;5067756;28;20042;-43
2024/03/01 07:20:24;;;;;;;23.30;14.65;;;;;;;;;;5067993;28;20096;-38
2024/03/01 07:22:50;;;;;;;24.00;15.07;;;;;;;;;;5067906;28;20017;-49
2024/03/01 07:25:17;;;;;;;18.65;14.23;;;;;;;;;;5068154;28;20036;-51
2024/03/01 07:27:44;;;;;;;17.40;13.90;;;;;;;;;;5067565;28;20209;-50
2024/03/01 07:30:11;;;;;;;18.40;13.65;;;;;;;;;;5067777;28;20025;-48
2024/03/01 07:32:38;;;;;;;17.17;13.40;;;;;;;;;;5067450;28;20028;-50
2024/03/01 07:35:05;;;;;;;20.63;14.57;;;;;;;;;;5067565;28;20021;-43
2024/03/01 07:37:32;;;;;;;20.02;14.85;;;;;;;;;;5067477;28;20325;-46
2024/03/01 07:39:59;;;;;;;20.17;14.25;;;;;;;;;;5067308;28;20028;-46
2024/03/01 07:42:26;;;;;;;18.67;14.05;;;;;;;;;;5067407;28;20091;-52
2024/03/01 07:44:55;;;;;;;18.95;13.50;;;;;;;;;;5067266;28;20125;-45
2024/03/01 07:47:25;;;;;;;21.98;14.25;;;;;;;;;;5067164;28;20052;-48
2024/03/01 07:49:52;;;;;;;19.10;13.73;;;;;;;;;;5067440;28;20297;-40
2024/03/01 07:52:18;;;;;;;19.73;13.57;;;;;;;;;;5067381;28;20040;-48
2024/03/01 07:54:45;;;;;;;20.20;13.73;;;;;;;;;;5067324;28;20335;-48
2024/03/01 07:57:11;;;;;;;17.70;13.27;;;;;;;;;;5067233;28;20028;-41
2024/03/01 07:59:38;;;;;;;17.02;13.07;;;;;;;;;;5067089;28;20024;-48
2024/03/01 08:02:07;;;;;;;19.35;12.98;;;;;;;;;;5066989;28;20036;-51
2024/03/01 08:04:34;;;;;;;16.77;13.15;;;;;;;;;;5067028;28;20032;-46
2024/03/01 08:07:02;;;;;;;16.98;13.35;;;;;;;;;;5066928;28;20025;-49
2024/03/01 08:09:32;;;;;;;16.42;13.05;;;;;;;;;;5066907;28;20021;-44
2024/03/01 08:11:59;;;;;;;16.33;12.93;;;;;;;;;;5066829;28;20080;-42
2024/03/01 08:14:28;;;;;;;16.63;12.73;;;;;;;;;;5067149;28;20371;-44
2024/03/01 08:16:55;;;;;;;20.05;12.52;;;;;;;;;;5067308;28;20044;-43
2024/03/01 08:19:22;;;;;;;16.67;12.25;;;;;;;;;;5066768;28;20325;-46
2024/03/01 08:21:49;;;;;;;16.27;12.07;;;;;;;;;;5067249;28;20036;-41
2024/03/01 08:24:19;;;;;;;17.13;12.20;;;;;;;;;;5066819;28;20028;-43
2024/03/01 08:26:46;;;;;;;17.70;12.43;;;;;;;;;;5065893;28;20029;-47
2024/03/01 08:29:13;;;;;;;15.02;12.15;;;;;;;;;;5066517;28;20025;-39
2024/03/01 08:31:40;;;;;;;18.67;12.32;;;;;;;;;;5067016;28;20080;-48
2024/03/01 08:34:25;;;;;;;15.57;11.82;;;;;;;;;;5066530;28;20025;-39
2024/03/01 08:36:52;;;;;;;17.50;12.30;;;;;;;;;;5066840;28;20071;-38
2024/03/01 08:39:27;;;;;;;18.95;12.52;;;;;;;;;;5066509;28;20029;-44
2024/03/01 08:41:55;;;;;;;18.42;12.43;;;;;;;;;;5066678;28;20328;-38
2024/03/01 08:44:43;;;;;;;14.50;11.77;;;;;;;;;;5066692;28;20044;-49
2024/03/01 08:47:31;;;;;;;18.02;12.75;;;;;;;;;;5065963;28;20045;-41
2024/03/01 08:49:57;;;;;;;16.52;12.75;;;;;;;;;;5066173;28;20250;-47
2024/03/01 08:52:37;;;;;;;21.90;12.45;;;;;;;;;;5066356;28;20020;-40
2024/03/01 08:55:20;;;;;;;19.00;12.93;;;;;;;;;;5066284;28;20021;-38
2024/03/01 08:57:47;;;;;;;18.45;12.82;;;;;;;;;;5066027;28;20088;-40
2024/03/01 09:00:29;;;;;;;18.80;12.88;;;;;;;;;;5066141;28;20031;-41
2024/03/01 09:02:55;;;;;;;17.63;11.93;;;;;;;;;;5065857;28;20104;-45
2024/03/01 09:05:22;;;;;;;19.17;12.55;;;;;;;;;;5066098;28;20028;-39
2024/03/01 09:07:49;;;;;;;19.25;12.82;;;;;;;;;;5065844;28;20079;-38
2024/03/01 09:10:16;;;;;;;19.77;12.52;;;;;;;;;;5065674;28;20017;-38
2024/03/01 09:12:47;;;;;;;21.27;12.68;;;;;;;;;;5065705;28;20027;-45
2024/03/01 09:15:16;;;;;;;20.75;11.63;;;;;;;;;;5065759;28;20077;-40
2024/03/01 09:17:43;;;;;;;19.05;12.60;;;;;;;;;;5065577;28;20033;-51
2024/03/01 09:20:21;;;;;;;17.58;12.32;;;;;;;;;;5065704;28;20063;-41
2024/03/01 09:22:48;;;;;;;18.42;12.40;;;;;;;;;;5065543;28;20056;-45
2024/03/01 09:25:50;;;;;;;22.40;12.25;;;;;;;;;;5065430;28;20025;-45
2024/03/01 09:28:19;;;;;;;20.10;13.32;;;;;;;;;;5043550;28;20226;-42
2024/03/01 09:30:46;;;;;;;19.10;13.10;;;;;;;;;;5061389;28;20021;-43
2024/03/01 09:33:13;;;;;;;16.90;12.10;;;;;;;;;;5065417;28;20032;-44
2024/03/01 09:35:40;;;;;;;17.42;11.55;;;;;;;;;;5065356;28;20013;-48
2024/03/01 09:38:07;;;;;;;19.08;12.52;;;;;;;;;;5065546;28;20347;-42
2024/03/01 09:40:37;;;;;;;15.10;12.00;;;;;;;;;;5065490;28;20024;-38
2024/03/01 09:43:26;;;;;;;19.30;12.85;;;;;;;;;;5065003;28;20029;-41
2024/03/01 09:45:58;;;;;;;17.17;12.23;;;;;;;;;;5055094;28;20333;-43
2024/03/01 09:48:40;;;;;;;18.63;12.75;;;;;;;;;;5064930;28;20037;-41
2024/03/01 09:51:21;;;;;;;17.88;12.52;;;;;;;;;;5065322;28;20059;-39
2024/03/01 09:53:50;;;;;;;17.73;12.30;;;;;;;;;;5065024;28;20029;-43
2024/03/01 09:56:17;;;;;;;19.52;12.15;;;;;;;;;;5065211;28;20017;-40
2024/03/01 09:58:56;;;;;;;19.55;12.82;;;;;;;;;;5064898;28;20017;-45
2024/03/01 10:01:28;;;;;;;19.95;12.77;;;;;;;;;;5065146;28;20313;-39
2024/03/01 10:04:02;;;;;;;17.98;13.23;;;;;;;;;;5064755;28;20029;-40
2024/03/01 10:06:40;;;;;;;21.63;12.93;;;;;;;;;;5065018;28;20045;-37
2024/03/01 10:09:13;;;;;;;19.60;12.88;;;;;;;;;;5064776;28;20044;-42
2024/03/01 10:11:55;;;;;;;18.70;12.75;;;;;;;;;;5065185;28;20044;-38
2024/03/01 10:14:44;;;;;;;17.70;12.95;;;;;;;;;;5064651;28;20218;-39
2024/03/01 10:17:17;;;;;;;20.40;12.45;;;;;;;;;;5064444;28;20025;-39
2024/03/01 10:19:49;;;;;;;18.50;12.65;;;;;;;;;;5064305;28;20017;-37
2024/03/01 10:22:15;;;;;;;;;;;;;;;;;;5065051;28;20024;-40
2024/03/01 10:25:05;;;;;;;20.75;12.57;;;;;;;;;;5064429;28;19901;-39
2024/03/01 10:27:38;;;;;;;19.35;12.55;;;;;;;;;;5054348;28;20044;-39
2024/03/01 10:30:05;;;;;;;19.13;12.18;;;;;;;;;;5064532;28;20020;-40
2024/03/01 10:32:38;;;;;;;21.00;12.88;;;;;;;;;;5064130;28;20040;-44
2024/03/01 10:35:19;;;;;;;18.52;12.10;;;;;;;;;;5064261;28;20020;-43
2024/03/01 10:37:48;;;;;;;23.48;12.30;;;;;;;;;;5064052;28;20205;-52
2024/03/01 10:40:17;;;;;;;21.08;12.77;;;;;;;;;;5064311;28;20032;-40
2024/03/01 10:43:11;;;;;;;33.92;13.32;;;;;;;;;;5064116;28;20021;-39
2024/03/01 10:45:48;;;;;;;31.42;14.52;;;;;;;;;;5051260;28;20034;-39
2024/03/01 10:48:14;;;;;;;34.58;15.38;;;;;;;;;;5044058;28;20033;-40
2024/03/01 10:50:46;;;;;;;35.58;14.63;;;;;;;;;;5043660;28;20021;-43
2024/03/01 10:53:22;;;;;;;45.13;15.45;;;;;;;;;;5044056;28;20029;-39
2024/03/01 10:55:59;;;;;;;34.63;15.57;;;;;;;;;;5044292;28;20079;-40
2024/03/01 10:58:25;;;;;;;52.70;16.30;;;;;;;;;;5043973;28;20021;-39
2024/03/01 11:00:57;;;;;;;46.63;15.93;;;;;;;;;;5043770;28;20056;-39
2024/03/01 11:03:43;;;;;;;43.85;15.73;;;;;;;;;;5043921;28;20036;-40
2024/03/01 11:06:27;;;;;;;44.80;16.60;;;;;;;;;;5044045;28;20025;-40
2024/03/01 11:09:10;;;;;;;39.30;15.60;;;;;;;;;;5043771;28;20329;-43
2024/03/01 11:11:37;;;;;;;36.42;15.30;;;;;;;;;;5044339;28;20088;-47
2024/03/01 11:14:05;;;;;;;38.78;14.90;;;;;;;;;;5043940;28;20021;-50
2024/03/01 11:16:33;;;;;;;38.38;15.02;;;;;;;;;;5044129;28;20025;-43
2024/03/01 11:19:07;;;;;;;41.95;15.57;;;;;;;;;;5043859;28;20068;-48
2024/03/01 11:21:34;;;;;;;67.60;17.73;;;;;;;;;;5044124;28;20025;-47
2024/03/01 11:24:05;;;;;;;75.35;18.10;;;;;;;;;;5043703;28;20021;-42
2024/03/01 11:26:36;;;;;;;44.63;14.97;;;;;;;;;;5044234;28;20053;-45
2024/03/01 11:29:04;;;;;;;35.63;14.55;;;;;;;;;;5043722;28;20021;-41
2024/03/01 11:31:31;;;;;;;34.33;14.27;;;;;;;;;;5043962;28;20044;-43
2024/03/01 11:34:06;;;;;;;34.50;14.48;;;;;;;;;;5043633;28;20313;-48
2024/03/01 11:36:39;;;;;;;38.72;14.30;;;;;;;;;;5063484;28;20028;-45
2024/03/01 11:39:11;;;;;;;43.20;14.73;;;;;;;;;;5062853;28;20025;-50
2024/03/01 11:41:44;;;;;;;31.80;13.90;;;;;;;;;;5060857;28;20021;-42
2024/03/01 11:44:29;;;;;;;31.42;14.77;;;;;;;;;;5068352;28;20028;-48
2024/03/01 11:47:03;;;;;;;30.08;14.40;;;;;;;;;;5063239;28;20056;-48
2024/03/01 11:49:36;;;;;;;74.10;15.55;;;;;;;;;;5063364;28;20084;-44
2024/03/01 11:52:11;;;;;;;30.92;14.60;;;;;;;;;;5073158;28;20213;-52
2024/03/01 11:54:43;;;;;;;30.10;14.77;;;;;;;;;;5064813;28;20021;-51
2024/03/01 11:57:12;;;;;;;37.73;15.03;;;;;;;;;;5063574;28;20033;-51
2024/03/01 11:59:57;;;;;;;32.53;15.07;;;;;;;;;;5063209;28;20067;-45
2024/03/01 12:02:30;;;;;;;43.80;16.17;;;;;;;;;;5066497;28;20043;-54
2024/03/01 12:04:56;;;;;;;56.88;16.23;;;;;;;;;;5076346;28;20024;-40
2024/03/01 12:07:27;;;;;;;30.98;14.88;;;;;;;;;;5069336;28;20052;-48
2024/03/01 12:10:01;;;;;;;54.50;16.40;;;;;;;;;;5066910;28;20306;-42
2024/03/01 12:12:36;;;;;;;36.67;14.02;;;;;;;;;;5076481;28;20208;-43
2024/03/01 12:15:08;;;;;;;62.58;17.27;;;;;;;;;;5080467;28;20288;-48
2024/03/01 12:17:50;;;;;;;52.53;17.20;;;;;;;;;;5086537;28;20025;-48
2024/03/01 12:20:16;;;;;;;65.20;17.95;;;;;;;;;;5086919;28;20200;-46
2024/03/01 12:22:50;;;;;;;68.63;17.08;;;;;;;;;;5086648;28;20016;-49
2024/03/01 12:25:22;;;;;;;42.00;14.73;;;;;;;;;;5086612;28;20159;-43
2024/03/01 12:28:09;;;;;;;38.00;14.77;;;;;;;;;;5086506;28;20317;-41
2024/03/01 12:30:39;;;;;;;41.88;14.55;;;;;;;;;;5087057;28;20028;-43
2024/03/01 12:33:14;;;;;;;38.50;14.48;;;;;;;;;;5086540;28;20020;-41
2024/03/01 12:35:51;;;;;;;30.77;14.18;;;;;;;;;;5086470;28;20017;-49
2024/03/01 12:38:19;;;;;;;43.38;15.18;;;;;;;;;;5086753;28;20024;-50
2024/03/01 12:40:53;;;;;;;30.42;14.15;;;;;;;;;;5086463;28;20084;-57
2024/03/01 12:43:31;;;;;;;32.90;14.57;;;;;;;;;;5085706;28;20056;-56
2024/03/01 12:46:05;;;;;;;31.10;13.60;;;;;;;;;;5070677;28;20041;-57
2024/03/01 12:48:53;;;;;;;34.78;14.10;;;;;;;;;;5062726;28;20396;-56
2024/03/01 12:51:28;;;;;;;44.65;15.60;;;;;;;;;;5058477;28;20027;-52
2024/03/01 12:53:57;;;;;;;35.30;14.40;;;;;;;;;;5053419;28;20056;-45
2024/03/01 12:56:34;;;;;;;29.95;13.43;;;;;;;;;;5056432;28;20017;-45
2024/03/01 12:59:03;;;;;;;27.77;13.48;;;;;;;;;;5054973;28;20025;-48
2024/03/01 13:01:35;;;;;;;32.60;13.30;;;;;;;;;;5056818;28;20036;-50
2024/03/01 13:04:20;;;;;;;31.63;13.02;;;;;;;;;;5056863;28;20028;-57
2024/03/01 13:06:48;;;;;;;33.53;13.25;;;;;;;;;;5051778;28;20028;-48
2024/03/01 13:09:19;;;;;;;37.00;12.85;;;;;;;;;;5045687;28;20044;-46
2024/03/01 13:11:49;;;;;;;34.22;12.65;;;;;;;;;;5046350;28;20075;-42
2024/03/01 13:14:25;;;;;;;21.90;12.43;;;;;;;;;;5045264;28;20318;-44
2024/03/01 13:16:55;;;;;;;20.40;12.18;;;;;;;;;;5046294;28;20029;-42
2024/03/01 13:19:26;;;;;;;24.13;12.48;;;;;;;;;;5045576;28;20113;-44
2024/03/01 13:22:06;;;;;;;20.88;12.02;;;;;;;;;;5045660;28;20049;-42
2024/03/01 13:24:43;;;;;;;34.58;13.02;;;;;;;;;;5047887;28;20037;-49
2024/03/01 13:27:13;;;;;;;26.27;12.27;;;;;;;;;;5059418;28;20029;-44
2024/03/01 13:29:43;;;;;;;23.13;12.27;;;;;;;;;;5053897;28;20017;-49
2024/03/01 13:32:21;;;;;;;20.38;12.35;;;;;;;;;;5055564;28;20044;-49
2024/03/01 13:34:53;;;;;;;19.00;11.45;;;;;;;;;;5064804;28;20017;-55
2024/03/01 13:37:28;;;;;;;18.95;11.23;;;;;;;;;;5065302;28;20280;-54
2024/03/01 13:39:59;;;;;;;20.80;11.93;;;;;;;;;;5054073;28;20174;-49
2024/03/01 13:42:35;;;;;;;17.20;11.15;;;;;;;;;;5065644;28;20029;-52
2024/03/01 13:45:12;;;;;;;16.65;10.70;;;;;;;;;;5063138;28;20032;-56
2024/03/01 13:47:40;;;;;;;18.73;11.23;;;;;;;;;;5052671;28;20226;-44
2024/03/01 13:50:08;;;;;;;20.55;12.05;;;;;;;;;;5049403;28;20022;-52
2024/03/01 13:52:39;;;;;;;21.20;11.07;;;;;;;;;;5047782;28;20021;-43
2024/03/01 13:55:10;;;;;;;16.33;10.73;;;;;;;;;;5045122;28;20080;-45
2024/03/01 13:57:39;;;;;;;15.50;11.15;;;;;;;;;;5051847;28;20048;-45
2024/03/01 14:00:14;;;;;;;22.38;11.05;;;;;;;;;;5048313;28;20194;-52
2024/03/01 14:02:44;;;;;;;17.55;10.88;;;;;;;;;;5044810;28;20030;-46
2024/03/01 14:05:14;;;;;;;19.38;10.48;;;;;;;;;;5044739;28;20033;-45
2024/03/01 14:07:47;;;;;;;19.90;11.20;;;;;;;;;;5044638;28;20025;-48
2024/03/01 14:10:14;;;;;;;22.23;11.40;;;;;;;;;;5044748;28;20225;-51
2024/03/01 14:12:41;;;;;;;17.13;11.05;;;;;;;;;;5044749;28;20353;-45
2024/03/01 14:15:11;;;;;;;23.27;11.32;;;;;;;;;;5044549;28;20092;-44
2024/03/01 14:17:40;;;;;;;21.75;11.45;;;;;;;;;;5056553;28;20093;-45
2024/03/01 14:20:14;;;;;;;19.00;10.82;;;;;;;;;;5064795;28;20028;-45
2024/03/01 14:22:41;;;;;;;18.25;10.80;;;;;;;;;;5055384;28;20043;-50
2024/03/01 14:25:11;;;;;;;19.02;11.25;;;;;;;;;;5054930;28;20305;-46
2024/03/01 14:27:46;;;;;;;21.63;12.40;;;;;;;;;;5054915;28;20029;-52
2024/03/01 14:30:18;;;;;;;18.52;11.65;;;;;;;;;;5055111;28;20021;-53